sensor_id;sensor_type;location;lat;lon;timestamp;temperature;humidity
6843;DHT22;3460;52.028;8.916;2023-06-05T00:02:25;13.60;99.90
6843;DHT22;3460;52.028;8.916;2023-06-05T00:04:53;13.50;99.90
6843;DHT22;3460;52.028;8.916;2023-06-05T00:07:20;13.60;99.90
6843;DHT22;3460;52.028;8.916;2023-06-05T00:09:48;13.40;99.90
6843;DHT22;3460;52.028;8.916;2023-06-05T00:12:15;13.40;99.90
6843;DHT22;3460;52.028;8.916;2023-06-05T00:14:42;13.30;99.90
6843;DHT22;3460;52.028;8.916;2023-06-05T00:17:09;13.40;99.90
6843;DHT22;3460;52.028;8.916;2023-06-05T00:19:36;13.20;99.90
6843;DHT22;3460;52.028;8.916;2023-06-05T00:22:04;13.20;99.90
6843;DHT22;3460;52.028;8.916;2023-06-05T00:24:30;13.20;99.90
6843;DHT22;3460;52.028;8.916;2023-06-05T00:26:59;13.10;99.90
6843;DHT22;3460;52.028;8.916;2023-06-05T00:29:26;13.00;99.90
6843;DHT22;3460;52.028;8.916;2023-06-05T00:31:52;12.90;99.90
6843;DHT22;3460;52.028;8.916;2023-06-05T00:34:20;12.90;99.90
6843;DHT22;3460;52.028;8.916;2023-06-05T00:36:47;12.80;99.90
6843;DHT22;3460;52.028;8.916;2023-06-05T00:39:16;12.80;99.90
6843;DHT22;3460;52.028;8.916;2023-06-05T00:41:44;12.90;99.90
6843;DHT22;3460;52.028;8.916;2023-06-05T00:44:12;13.10;99.90
6843;DHT22;3460;52.028;8.916;2023-06-05T00:46:39;13.00;99.90
6843;DHT22;3460;52.028;8.916;2023-06-05T00:49:07;12.90;99.90
6843;DHT22;3460;52.028;8.916;2023-06-05T00:51:34;12.90;99.90
6843;DHT22;3460;52.028;8.916;2023-06-05T00:54:02;12.90;99.90
6843;DHT22;3460;52.028;8.916;2023-06-05T00:56:29;12.80;99.90
6843;DHT22;3460;52.028;8.916;2023-06-05T00:58:58;12.70;99.90
6843;DHT22;3460;52.028;8.916;2023-06-05T01:01:26;12.60;99.90
6843;DHT22;3460;52.028;8.916;2023-06-05T01:03:54;12.60;99.90
6843;DHT22;3460;52.028;8.916;2023-06-05T01:06:23;12.50;99.90
6843;DHT22;3460;52.028;8.916;2023-06-05T01:08:52;12.40;99.90
6843;DHT22;3460;52.028;8.916;2023-06-05T01:11:24;12.30;99.90
6843;DHT22;3460;52.028;8.916;2023-06-05T01:13:58;12.30;99.90
6843;DHT22;3460;52.028;8.916;2023-06-05T01:16:30;12.20;99.90
6843;DHT22;3460;52.028;8.916;2023-06-05T01:18:59;12.00;99.90
6843;DHT22;3460;52.028;8.916;2023-06-05T01:21:28;11.90;99.90
6843;DHT22;3460;52.028;8.916;2023-06-05T01:23:57;11.90;99.90
6843;DHT22;3460;52.028;8.916;2023-06-05T01:26:28;11.90;99.90
6843;DHT22;3460;52.028;8.916;2023-06-05T01:28:58;11.80;99.90
6843;DHT22;3460;52.028;8.916;2023-06-05T01:31:27;11.80;99.90
6843;DHT22;3460;52.028;8.916;2023-06-05T01:33:58;11.70;99.90
6843;DHT22;3460;52.028;8.916;2023-06-05T01:36:28;11.70;99.90
6843;DHT22;3460;52.028;8.916;2023-06-05T01:38:58;11.50;99.90
6843;DHT22;3460;52.028;8.916;2023-06-05T01:41:26;11.40;99.90
6843;DHT22;3460;52.028;8.916;2023-06-05T01:43:54;11.40;99.90
6843;DHT22;3460;52.028;8.916;2023-06-05T01:46:22;11.40;99.90
6843;DHT22;3460;52.028;8.916;2023-06-05T01:48:49;11.30;99.90
6843;DHT22;3460;52.028;8.916;2023-06-05T01:51:16;11.30;99.90
6843;DHT22;3460;52.028;8.916;2023-06-05T01:53:43;11.20;99.90
6843;DHT22;3460;52.028;8.916;2023-06-05T01:56:15;11.10;99.90
6843;DHT22;3460;52.028;8.916;2023-06-05T01:58:46;11.10;99.90
6843;DHT22;3460;52.028;8.916;2023-06-05T02:01:12;11.10;99.90
6843;DHT22;3460;52.028;8.916;2023-06-05T02:03:41;11.10;99.90
6843;DHT22;3460;52.028;8.916;2023-06-05T02:06:13;11.10;99.90
6843;DHT22;3460;52.028;8.916;2023-06-05T02:08:41;11.00;99.90
6843;DHT22;3460;52.028;8.916;2023-06-05T02:11:08;10.90;99.90
6843;DHT22;3460;52.028;8.916;2023-06-05T02:13:37;10.80;99.90
6843;DHT22;3460;52.028;8.916;2023-06-05T02:16:04;10.80;99.90
6843;DHT22;3460;52.028;8.916;2023-06-05T02:18:31;10.70;99.90
6843;DHT22;3460;52.028;8.916;2023-06-05T02:21:02;10.70;99.90
6843;DHT22;3460;52.028;8.916;2023-06-05T02:23:29;10.60;99.90
6843;DHT22;3460;52.028;8.916;2023-06-05T02:25:56;10.60;99.90
6843;DHT22;3460;52.028;8.916;2023-06-05T02:28:23;10.70;99.90
6843;DHT22;3460;52.028;8.916;2023-06-05T02:30:54;10.50;99.90
6843;DHT22;3460;52.028;8.916;2023-06-05T02:33:20;10.60;99.90
6843;DHT22;3460;52.028;8.916;2023-06-05T02:35:48;10.50;99.90
6843;DHT22;3460;52.028;8.916;2023-06-05T02:38:15;10.40;99.90
6843;DHT22;3460;52.028;8.916;2023-06-05T02:40:42;10.50;99.90
6843;DHT22;3460;52.028;8.916;2023-06-05T02:43:09;10.40;99.90
6843;DHT22;3460;52.028;8.916;2023-06-05T02:45:37;10.50;99.90
6843;DHT22;3460;52.028;8.916;2023-06-05T02:48:05;10.40;99.90
6843;DHT22;3460;52.028;8.916;2023-06-05T02:50:32;10.40;99.90
6843;DHT22;3460;52.028;8.916;2023-06-05T02:52:59;10.40;99.90
6843;DHT22;3460;52.028;8.916;2023-06-05T02:55:25;10.20;99.90
6843;DHT22;3460;52.028;8.916;2023-06-05T02:57:55;10.10;99.90
6843;DHT22;3460;52.028;8.916;2023-06-05T03:00:23;10.10;99.90
6843;DHT22;3460;52.028;8.916;2023-06-05T03:02:51;10.10;99.90
6843;DHT22;3460;52.028;8.916;2023-06-05T03:05:19;10.00;99.90
6843;DHT22;3460;52.028;8.916;2023-06-05T03:07:50;9.90;99.90
6843;DHT22;3460;52.028;8.916;2023-06-05T03:10:19;9.90;99.90
6843;DHT22;3460;52.028;8.916;2023-06-05T03:12:46;9.80;99.90
6843;DHT22;3460;52.028;8.916;2023-06-05T03:15:14;9.80;99.90
6843;DHT22;3460;52.028;8.916;2023-06-05T03:17:40;9.90;99.90
6843;DHT22;3460;52.028;8.916;2023-06-05T03:20:08;9.90;99.90
6843;DHT22;3460;52.028;8.916;2023-06-05T03:22:37;9.80;99.90
6843;DHT22;3460;52.028;8.916;2023-06-05T03:25:05;9.70;99.90
6843;DHT22;3460;52.028;8.916;2023-06-05T03:27:32;9.70;99.90
6843;DHT22;3460;52.028;8.916;2023-06-05T03:29:58;9.70;99.90
6843;DHT22;3460;52.028;8.916;2023-06-05T03:32:25;9.70;99.90
6843;DHT22;3460;52.028;8.916;2023-06-05T03:34:52;9.70;99.90
6843;DHT22;3460;52.028;8.916;2023-06-05T03:37:19;9.50;99.90
6843;DHT22;3460;52.028;8.916;2023-06-05T03:39:47;9.50;99.90
6843;DHT22;3460;52.028;8.916;2023-06-05T03:42:14;9.50;99.90
6843;DHT22;3460;52.028;8.916;2023-06-05T03:44:40;9.50;99.90
6843;DHT22;3460;52.028;8.916;2023-06-05T03:47:07;9.60;99.90
6843;DHT22;3460;52.028;8.916;2023-06-05T03:49:34;9.70;99.90
6843;DHT22;3460;52.028;8.916;2023-06-05T03:52:01;9.60;99.90
6843;DHT22;3460;52.028;8.916;2023-06-05T03:54:28;9.40;99.90
6843;DHT22;3460;52.028;8.916;2023-06-05T03:56:59;9.30;99.90
6843;DHT22;3460;52.028;8.916;2023-06-05T03:59:27;9.20;99.90
6843;DHT22;3460;52.028;8.916;2023-06-05T04:01:55;9.30;99.90
6843;DHT22;3460;52.028;8.916;2023-06-05T04:04:22;9.20;99.90
6843;DHT22;3460;52.028;8.916;2023-06-05T04:06:49;9.10;99.90
6843;DHT22;3460;52.028;8.916;2023-06-05T04:09:16;9.20;99.90
6843;DHT22;3460;52.028;8.916;2023-06-05T04:11:44;9.60;99.90
6843;DHT22;3460;52.028;8.916;2023-06-05T04:14:12;9.80;99.90
6843;DHT22;3460;52.028;8.916;2023-06-05T04:16:40;9.80;99.90
6843;DHT22;3460;52.028;8.916;2023-06-05T04:19:09;10.10;99.90
6843;DHT22;3460;52.028;8.916;2023-06-05T04:21:36;10.40;99.90
6843;DHT22;3460;52.028;8.916;2023-06-05T04:24:03;10.70;99.90
6843;DHT22;3460;52.028;8.916;2023-06-05T04:26:32;10.90;99.90
6843;DHT22;3460;52.028;8.916;2023-06-05T04:28:59;11.00;99.90
6843;DHT22;3460;52.028;8.916;2023-06-05T04:31:29;11.20;99.90
6843;DHT22;3460;52.028;8.916;2023-06-05T04:33:56;11.40;99.90
6843;DHT22;3460;52.028;8.916;2023-06-05T04:36:24;11.60;99.90
6843;DHT22;3460;52.028;8.916;2023-06-05T04:38:51;11.60;99.90
6843;DHT22;3460;52.028;8.916;2023-06-05T04:41:18;11.60;99.90
6843;DHT22;3460;52.028;8.916;2023-06-05T04:43:46;11.50;99.90
6843;DHT22;3460;52.028;8.916;2023-06-05T04:46:14;11.60;99.90
6843;DHT22;3460;52.028;8.916;2023-06-05T04:48:42;11.70;99.90
6843;DHT22;3460;52.028;8.916;2023-06-05T04:51:11;11.60;99.90
6843;DHT22;3460;52.028;8.916;2023-06-05T04:53:38;11.50;99.90
6843;DHT22;3460;52.028;8.916;2023-06-05T04:56:07;11.60;99.90
6843;DHT22;3460;52.028;8.916;2023-06-05T04:58:34;11.70;99.90
6843;DHT22;3460;52.028;8.916;2023-06-05T05:01:01;11.70;99.90
6843;DHT22;3460;52.028;8.916;2023-06-05T05:03:31;11.60;99.90
6843;DHT22;3460;52.028;8.916;2023-06-05T05:06:00;11.60;99.90
6843;DHT22;3460;52.028;8.916;2023-06-05T05:08:27;11.70;99.90
6843;DHT22;3460;52.028;8.916;2023-06-05T05:10:54;11.80;99.90
6843;DHT22;3460;52.028;8.916;2023-06-05T05:13:21;12.00;99.90
6843;DHT22;3460;52.028;8.916;2023-06-05T05:15:48;12.00;99.90
6843;DHT22;3460;52.028;8.916;2023-06-05T05:18:18;12.20;99.90
6843;DHT22;3460;52.028;8.916;2023-06-05T05:20:45;12.20;99.90
6843;DHT22;3460;52.028;8.916;2023-06-05T05:23:14;12.20;99.90
6843;DHT22;3460;52.028;8.916;2023-06-05T05:25:41;12.30;99.90
6843;DHT22;3460;52.028;8.916;2023-06-05T05:28:08;12.40;99.90
6843;DHT22;3460;52.028;8.916;2023-06-05T05:30:35;12.30;99.90
6843;DHT22;3460;52.028;8.916;2023-06-05T05:33:02;12.50;99.90
6843;DHT22;3460;52.028;8.916;2023-06-05T05:35:29;12.70;99.90
6843;DHT22;3460;52.028;8.916;2023-06-05T05:37:57;12.80;99.90
6843;DHT22;3460;52.028;8.916;2023-06-05T05:40:25;12.70;99.90
6843;DHT22;3460;52.028;8.916;2023-06-05T05:42:52;12.60;99.90
6843;DHT22;3460;52.028;8.916;2023-06-05T05:45:19;12.70;99.90
6843;DHT22;3460;52.028;8.916;2023-06-05T05:47:46;12.80;99.90
6843;DHT22;3460;52.028;8.916;2023-06-05T05:50:12;12.70;99.90
6843;DHT22;3460;52.028;8.916;2023-06-05T05:52:39;12.70;99.90
6843;DHT22;3460;52.028;8.916;2023-06-05T05:55:08;12.50;99.90
6843;DHT22;3460;52.028;8.916;2023-06-05T05:57:37;12.50;99.90
6843;DHT22;3460;52.028;8.916;2023-06-05T06:00:04;12.60;99.90
6843;DHT22;3460;52.028;8.916;2023-06-05T06:02:34;12.60;99.90
6843;DHT22;3460;52.028;8.916;2023-06-05T06:05:01;12.70;99.90
6843;DHT22;3460;52.028;8.916;2023-06-05T06:07:30;12.70;99.90
6843;DHT22;3460;52.028;8.916;2023-06-05T06:09:57;12.70;99.90
6843;DHT22;3460;52.028;8.916;2023-06-05T06:12:24;12.90;99.90
6843;DHT22;3460;52.028;8.916;2023-06-05T06:14:52;13.00;99.90
6843;DHT22;3460;52.028;8.916;2023-06-05T06:17:19;13.20;99.90
6843;DHT22;3460;52.028;8.916;2023-06-05T06:19:46;13.50;99.90
6843;DHT22;3460;52.028;8.916;2023-06-05T06:22:13;13.70;99.90
6843;DHT22;3460;52.028;8.916;2023-06-05T06:24:41;14.00;99.90
6843;DHT22;3460;52.028;8.916;2023-06-05T06:27:08;14.10;99.90
6843;DHT22;3460;52.028;8.916;2023-06-05T06:29:37;14.00;99.90
6843;DHT22;3460;52.028;8.916;2023-06-05T06:32:05;13.90;99.90
6843;DHT22;3460;52.028;8.916;2023-06-05T06:34:33;13.90;99.90
6843;DHT22;3460;52.028;8.916;2023-06-05T06:37:00;13.90;99.90
6843;DHT22;3460;52.028;8.916;2023-06-05T06:39:27;13.90;99.90
6843;DHT22;3460;52.028;8.916;2023-06-05T06:41:54;13.90;99.90
6843;DHT22;3460;52.028;8.916;2023-06-05T06:44:22;13.90;99.90
6843;DHT22;3460;52.028;8.916;2023-06-05T06:46:49;13.90;99.90
6843;DHT22;3460;52.028;8.916;2023-06-05T06:49:17;14.00;99.90
6843;DHT22;3460;52.028;8.916;2023-06-05T06:51:44;14.20;99.90
6843;DHT22;3460;52.028;8.916;2023-06-05T06:54:11;14.20;99.90
6843;DHT22;3460;52.028;8.916;2023-06-05T06:56:38;14.30;99.90
6843;DHT22;3460;52.028;8.916;2023-06-05T06:59:10;14.40;99.90
6843;DHT22;3460;52.028;8.916;2023-06-05T07:01:43;14.50;99.90
6843;DHT22;3460;52.028;8.916;2023-06-05T07:04:11;14.60;99.90
6843;DHT22;3460;52.028;8.916;2023-06-05T07:06:39;14.60;99.90
6843;DHT22;3460;52.028;8.916;2023-06-05T07:09:06;14.70;99.90
6843;DHT22;3460;52.028;8.916;2023-06-05T07:11:33;14.90;99.90
6843;DHT22;3460;52.028;8.916;2023-06-05T07:14:00;14.90;99.90
6843;DHT22;3460;52.028;8.916;2023-06-05T07:16:27;15.00;99.90
6843;DHT22;3460;52.028;8.916;2023-06-05T07:18:54;15.20;99.90
6843;DHT22;3460;52.028;8.916;2023-06-05T07:21:21;15.40;99.90
6843;DHT22;3460;52.028;8.916;2023-06-05T07:23:50;15.70;99.90
6843;DHT22;3460;52.028;8.916;2023-06-05T07:26:18;15.70;99.90
6843;DHT22;3460;52.028;8.916;2023-06-05T07:28:45;16.00;99.90
6843;DHT22;3460;52.028;8.916;2023-06-05T07:31:13;16.20;99.90
6843;DHT22;3460;52.028;8.916;2023-06-05T07:33:41;16.20;99.90
6843;DHT22;3460;52.028;8.916;2023-06-05T07:36:08;16.30;99.90
6843;DHT22;3460;52.028;8.916;2023-06-05T07:38:36;16.40;99.90
6843;DHT22;3460;52.028;8.916;2023-06-05T07:41:05;16.50;99.90
6843;DHT22;3460;52.028;8.916;2023-06-05T07:43:32;16.60;99.90
6843;DHT22;3460;52.028;8.916;2023-06-05T07:45:59;16.80;99.90
6843;DHT22;3460;52.028;8.916;2023-06-05T07:48:26;16.90;99.90
6843;DHT22;3460;52.028;8.916;2023-06-05T07:50:52;17.10;99.90
6843;DHT22;3460;52.028;8.916;2023-06-05T07:53:19;17.30;99.90
6843;DHT22;3460;52.028;8.916;2023-06-05T07:55:47;17.50;99.90
6843;DHT22;3460;52.028;8.916;2023-06-05T07:58:17;17.70;99.90
6843;DHT22;3460;52.028;8.916;2023-06-05T08:00:44;18.00;99.90
6843;DHT22;3460;52.028;8.916;2023-06-05T08:03:13;18.20;99.90
6843;DHT22;3460;52.028;8.916;2023-06-05T08:05:45;18.20;99.90
6843;DHT22;3460;52.028;8.916;2023-06-05T08:08:12;18.20;99.90
6843;DHT22;3460;52.028;8.916;2023-06-05T08:10:39;18.30;99.90
6843;DHT22;3460;52.028;8.916;2023-06-05T08:13:07;18.50;99.90
6843;DHT22;3460;52.028;8.916;2023-06-05T08:15:35;18.60;99.90
6843;DHT22;3460;52.028;8.916;2023-06-05T08:18:02;18.60;99.90
6843;DHT22;3460;52.028;8.916;2023-06-05T08:20:29;18.70;99.90
6843;DHT22;3460;52.028;8.916;2023-06-05T08:22:56;18.90;99.90
6843;DHT22;3460;52.028;8.916;2023-06-05T08:25:23;19.20;99.90
6843;DHT22;3460;52.028;8.916;2023-06-05T08:27:51;19.20;99.90
6843;DHT22;3460;52.028;8.916;2023-06-05T08:30:18;19.40;99.90
6843;DHT22;3460;52.028;8.916;2023-06-05T08:32:46;19.50;99.90
6843;DHT22;3460;52.028;8.916;2023-06-05T08:35:13;19.50;99.90
6843;DHT22;3460;52.028;8.916;2023-06-05T08:37:40;19.60;99.90
6843;DHT22;3460;52.028;8.916;2023-06-05T08:40:07;19.80;99.90
6843;DHT22;3460;52.028;8.916;2023-06-05T08:42:36;19.70;99.90
6843;DHT22;3460;52.028;8.916;2023-06-05T08:45:05;20.00;99.90
6843;DHT22;3460;52.028;8.916;2023-06-05T08:47:36;20.20;99.90
6843;DHT22;3460;52.028;8.916;2023-06-05T08:50:06;20.30;99.90
6843;DHT22;3460;52.028;8.916;2023-06-05T08:52:34;20.20;99.90
6843;DHT22;3460;52.028;8.916;2023-06-05T08:55:03;20.50;99.90
6843;DHT22;3460;52.028;8.916;2023-06-05T08:57:31;20.50;99.90
6843;DHT22;3460;52.028;8.916;2023-06-05T08:59:59;20.60;99.90
6843;DHT22;3460;52.028;8.916;2023-06-05T09:02:32;20.90;99.90
6843;DHT22;3460;52.028;8.916;2023-06-05T09:04:59;21.00;99.90
6843;DHT22;3460;52.028;8.916;2023-06-05T09:07:29;21.20;99.90
6843;DHT22;3460;52.028;8.916;2023-06-05T09:09:56;21.10;99.90
6843;DHT22;3460;52.028;8.916;2023-06-05T09:12:23;21.10;99.90
6843;DHT22;3460;52.028;8.916;2023-06-05T09:14:51;21.30;99.90
6843;DHT22;3460;52.028;8.916;2023-06-05T09:17:18;21.50;99.90
6843;DHT22;3460;52.028;8.916;2023-06-05T09:19:48;21.50;99.90
6843;DHT22;3460;52.028;8.916;2023-06-05T09:22:16;21.50;99.90
6843;DHT22;3460;52.028;8.916;2023-06-05T09:24:59;21.60;99.90
6843;DHT22;3460;52.028;8.916;2023-06-05T09:27:27;22.00;99.90
6843;DHT22;3460;52.028;8.916;2023-06-05T09:30:02;21.80;99.90
6843;DHT22;3460;52.028;8.916;2023-06-05T09:32:30;22.00;99.90
6843;DHT22;3460;52.028;8.916;2023-06-05T09:34:57;22.00;99.90
6843;DHT22;3460;52.028;8.916;2023-06-05T09:37:32;22.10;99.90
6843;DHT22;3460;52.028;8.916;2023-06-05T09:40:02;22.00;99.90
6843;DHT22;3460;52.028;8.916;2023-06-05T09:42:34;22.30;99.90
6843;DHT22;3460;52.028;8.916;2023-06-05T09:45:01;22.40;99.90
6843;DHT22;3460;52.028;8.916;2023-06-05T09:47:30;22.40;99.90
6843;DHT22;3460;52.028;8.916;2023-06-05T09:49:56;22.30;99.90
6843;DHT22;3460;52.028;8.916;2023-06-05T09:52:24;22.30;99.90
6843;DHT22;3460;52.028;8.916;2023-06-05T09:54:55;22.50;99.90
6843;DHT22;3460;52.028;8.916;2023-06-05T09:57:28;22.60;99.90
6843;DHT22;3460;52.028;8.916;2023-06-05T09:59:56;22.90;99.90
6843;DHT22;3460;52.028;8.916;2023-06-05T10:02:27;22.90;99.90
6843;DHT22;3460;52.028;8.916;2023-06-05T10:05:00;23.00;99.90
6843;DHT22;3460;52.028;8.916;2023-06-05T10:07:30;23.20;99.90
6843;DHT22;3460;52.028;8.916;2023-06-05T10:09:57;23.20;99.90
6843;DHT22;3460;52.028;8.916;2023-06-05T10:12:24;23.00;99.90
6843;DHT22;3460;52.028;8.916;2023-06-05T10:14:54;22.70;99.90
6843;DHT22;3460;52.028;8.916;2023-06-05T10:17:21;22.70;99.90
6843;DHT22;3460;52.028;8.916;2023-06-05T10:19:50;22.80;99.90
6843;DHT22;3460;52.028;8.916;2023-06-05T10:22:18;23.00;99.90
6843;DHT22;3460;52.028;8.916;2023-06-05T10:24:47;23.20;99.90
6843;DHT22;3460;52.028;8.916;2023-06-05T10:27:35;23.20;99.90
6843;DHT22;3460;52.028;8.916;2023-06-05T10:33:20;22.90;99.90
6843;DHT22;3460;52.028;8.916;2023-06-05T10:35:52;22.80;99.90
6843;DHT22;3460;52.028;8.916;2023-06-05T10:38:21;22.80;99.90
6843;DHT22;3460;52.028;8.916;2023-06-05T10:40:52;22.70;99.90
6843;DHT22;3460;52.028;8.916;2023-06-05T10:43:26;22.80;99.90
6843;DHT22;3460;52.028;8.916;2023-06-05T10:45:56;22.90;99.90
6843;DHT22;3460;52.028;8.916;2023-06-05T10:51:37;22.90;99.90
6843;DHT22;3460;52.028;8.916;2023-06-05T10:54:05;22.70;99.90
6843;DHT22;3460;52.028;8.916;2023-06-05T10:56:58;22.70;99.90
6843;DHT22;3460;52.028;8.916;2023-06-05T10:59:27;22.90;99.90
6843;DHT22;3460;52.028;8.916;2023-06-05T11:02:24;22.90;99.90
6843;DHT22;3460;52.028;8.916;2023-06-05T11:05:09;23.00;99.90
6843;DHT22;3460;52.028;8.916;2023-06-05T11:07:40;23.20;99.90
6843;DHT22;3460;52.028;8.916;2023-06-05T11:10:10;23.20;99.90
6843;DHT22;3460;52.028;8.916;2023-06-05T11:13:00;23.00;99.90
6843;DHT22;3460;52.028;8.916;2023-06-05T11:15:41;22.90;99.90
6843;DHT22;3460;52.028;8.916;2023-06-05T11:18:30;22.90;99.90
6843;DHT22;3460;52.028;8.916;2023-06-05T11:20:58;22.90;99.90
6843;DHT22;3460;52.028;8.916;2023-06-05T11:23:26;22.70;99.90
6843;DHT22;3460;52.028;8.916;2023-06-05T11:25:56;22.80;99.90
6843;DHT22;3460;52.028;8.916;2023-06-05T11:28:42;22.80;99.90
6843;DHT22;3460;52.028;8.916;2023-06-05T11:31:09;22.80;99.90
6843;DHT22;3460;52.028;8.916;2023-06-05T11:33:38;22.80;99.90
6843;DHT22;3460;52.028;8.916;2023-06-05T11:36:06;23.00;99.90
6843;DHT22;3460;52.028;8.916;2023-06-05T11:38:34;22.90;99.90
6843;DHT22;3460;52.028;8.916;2023-06-05T11:41:06;22.90;99.90
6843;DHT22;3460;52.028;8.916;2023-06-05T11:43:35;22.90;99.90
6843;DHT22;3460;52.028;8.916;2023-06-05T11:46:07;23.00;99.90
6843;DHT22;3460;52.028;8.916;2023-06-05T11:48:34;23.10;99.90
6843;DHT22;3460;52.028;8.916;2023-06-05T11:51:03;23.40;99.90
6843;DHT22;3460;52.028;8.916;2023-06-05T11:53:31;23.50;99.90
6843;DHT22;3460;52.028;8.916;2023-06-05T11:55:58;23.50;99.90
6843;DHT22;3460;52.028;8.916;2023-06-05T11:58:34;23.50;99.90
6843;DHT22;3460;52.028;8.916;2023-06-05T12:01:07;23.70;99.90
6843;DHT22;3460;52.028;8.916;2023-06-05T12:03:38;23.90;99.90
6843;DHT22;3460;52.028;8.916;2023-06-05T12:06:07;23.60;99.90
6843;DHT22;3460;52.028;8.916;2023-06-05T12:08:34;23.40;99.90
6843;DHT22;3460;52.028;8.916;2023-06-05T12:11:03;23.40;99.90
6843;DHT22;3460;52.028;8.916;2023-06-05T12:13:46;23.30;99.90
6843;DHT22;3460;52.028;8.916;2023-06-05T12:16:14;23.40;99.90
6843;DHT22;3460;52.028;8.916;2023-06-05T12:18:41;23.60;99.90
6843;DHT22;3460;52.028;8.916;2023-06-05T12:21:21;23.50;99.90
6843;DHT22;3460;52.028;8.916;2023-06-05T12:23:48;23.60;99.90
6843;DHT22;3460;52.028;8.916;2023-06-05T12:26:16;23.70;99.90
6843;DHT22;3460;52.028;8.916;2023-06-05T12:28:44;23.70;99.90
6843;DHT22;3460;52.028;8.916;2023-06-05T12:31:33;23.50;99.90
6843;DHT22;3460;52.028;8.916;2023-06-05T12:34:01;23.60;99.90
6843;DHT22;3460;52.028;8.916;2023-06-05T12:36:29;23.50;99.90
6843;DHT22;3460;52.028;8.916;2023-06-05T12:39:01;23.50;99.90
6843;DHT22;3460;52.028;8.916;2023-06-05T12:41:31;23.70;99.90
6843;DHT22;3460;52.028;8.916;2023-06-05T12:44:02;23.80;99.90
6843;DHT22;3460;52.028;8.916;2023-06-05T12:46:30;23.80;99.90
6843;DHT22;3460;52.028;8.916;2023-06-05T12:48:57;23.80;99.90
6843;DHT22;3460;52.028;8.916;2023-06-05T12:51:25;23.80;99.90
6843;DHT22;3460;52.028;8.916;2023-06-05T12:53:54;23.50;99.90
6843;DHT22;3460;52.028;8.916;2023-06-05T12:56:21;23.50;99.90
6843;DHT22;3460;52.028;8.916;2023-06-05T12:58:51;23.40;99.90
6843;DHT22;3460;52.028;8.916;2023-06-05T13:01:18;23.40;99.90
6843;DHT22;3460;52.028;8.916;2023-06-05T13:03:45;23.50;99.90
6843;DHT22;3460;52.028;8.916;2023-06-05T13:06:12;23.60;99.90
6843;DHT22;3460;52.028;8.916;2023-06-05T13:08:39;23.70;99.90
6843;DHT22;3460;52.028;8.916;2023-06-05T13:11:07;23.60;99.90
6843;DHT22;3460;52.028;8.916;2023-06-05T13:13:35;23.70;99.90
6843;DHT22;3460;52.028;8.916;2023-06-05T13:16:03;23.80;99.90
6843;DHT22;3460;52.028;8.916;2023-06-05T13:18:31;23.70;99.90
6843;DHT22;3460;52.028;8.916;2023-06-05T13:20:58;23.60;99.90
6843;DHT22;3460;52.028;8.916;2023-06-05T13:23:25;23.80;99.90
6843;DHT22;3460;52.028;8.916;2023-06-05T13:25:52;24.00;99.90
6843;DHT22;3460;52.028;8.916;2023-06-05T13:28:21;24.10;99.90
6843;DHT22;3460;52.028;8.916;2023-06-05T13:30:47;24.10;99.90
6843;DHT22;3460;52.028;8.916;2023-06-05T13:33:14;24.20;99.90
6843;DHT22;3460;52.028;8.916;2023-06-05T13:35:41;24.10;99.90
6843;DHT22;3460;52.028;8.916;2023-06-05T13:38:08;24.20;99.90
6843;DHT22;3460;52.028;8.916;2023-06-05T13:40:35;24.40;99.90
6843;DHT22;3460;52.028;8.916;2023-06-05T13:43:02;24.30;99.90
6843;DHT22;3460;52.028;8.916;2023-06-05T13:45:30;24.30;99.90
6843;DHT22;3460;52.028;8.916;2023-06-05T13:47:57;24.30;99.90
6843;DHT22;3460;52.028;8.916;2023-06-05T13:50:23;24.40;99.90
6843;DHT22;3460;52.028;8.916;2023-06-05T13:52:50;24.50;99.90
6843;DHT22;3460;52.028;8.916;2023-06-05T13:55:18;24.70;99.90
6843;DHT22;3460;52.028;8.916;2023-06-05T13:57:45;24.50;99.90
6843;DHT22;3460;52.028;8.916;2023-06-05T14:00:12;24.60;99.90
6843;DHT22;3460;52.028;8.916;2023-06-05T14:02:41;24.30;99.90
6843;DHT22;3460;52.028;8.916;2023-06-05T14:05:08;24.30;99.90
6843;DHT22;3460;52.028;8.916;2023-06-05T14:07:37;24.30;99.90
6843;DHT22;3460;52.028;8.916;2023-06-05T14:10:05;24.00;99.90
6843;DHT22;3460;52.028;8.916;2023-06-05T14:12:32;24.10;99.90
6843;DHT22;3460;52.028;8.916;2023-06-05T14:14:59;24.00;99.90
6843;DHT22;3460;52.028;8.916;2023-06-05T14:17:26;24.00;99.90
6843;DHT22;3460;52.028;8.916;2023-06-05T14:19:54;24.10;99.90
6843;DHT22;3460;52.028;8.916;2023-06-05T14:22:21;24.20;99.90
6843;DHT22;3460;52.028;8.916;2023-06-05T14:24:48;24.10;99.90
6843;DHT22;3460;52.028;8.916;2023-06-05T14:27:15;24.00;99.90
6843;DHT22;3460;52.028;8.916;2023-06-05T14:29:43;24.00;99.90
6843;DHT22;3460;52.028;8.916;2023-06-05T14:32:10;23.90;99.90
6843;DHT22;3460;52.028;8.916;2023-06-05T14:34:37;24.00;99.90
6843;DHT22;3460;52.028;8.916;2023-06-05T14:37:05;23.80;99.90
6843;DHT22;3460;52.028;8.916;2023-06-05T14:39:32;23.90;99.90
6843;DHT22;3460;52.028;8.916;2023-06-05T14:41:59;23.80;99.90
6843;DHT22;3460;52.028;8.916;2023-06-05T14:44:26;24.10;99.90
6843;DHT22;3460;52.028;8.916;2023-06-05T14:46:54;24.10;99.90
6843;DHT22;3460;52.028;8.916;2023-06-05T14:49:21;24.00;99.90
6843;DHT22;3460;52.028;8.916;2023-06-05T14:51:48;23.90;99.90
6843;DHT22;3460;52.028;8.916;2023-06-05T14:54:17;23.90;99.90
6843;DHT22;3460;52.028;8.916;2023-06-05T14:56:44;24.00;99.90
6843;DHT22;3460;52.028;8.916;2023-06-05T14:59:12;24.10;99.90
6843;DHT22;3460;52.028;8.916;2023-06-05T15:01:40;24.10;99.90
6843;DHT22;3460;52.028;8.916;2023-06-05T15:04:07;24.10;99.90
6843;DHT22;3460;52.028;8.916;2023-06-05T15:06:34;24.20;99.90
6843;DHT22;3460;52.028;8.916;2023-06-05T15:09:01;24.20;99.90
6843;DHT22;3460;52.028;8.916;2023-06-05T15:11:30;24.10;99.90
6843;DHT22;3460;52.028;8.916;2023-06-05T15:13:57;24.00;99.90
6843;DHT22;3460;52.028;8.916;2023-06-05T15:16:24;24.00;99.90
6843;DHT22;3460;52.028;8.916;2023-06-05T15:18:52;23.80;99.90
6843;DHT22;3460;52.028;8.916;2023-06-05T15:21:19;23.80;99.90
6843;DHT22;3460;52.028;8.916;2023-06-05T15:23:45;24.00;99.90
6843;DHT22;3460;52.028;8.916;2023-06-05T15:26:12;23.90;99.90
6843;DHT22;3460;52.028;8.916;2023-06-05T15:28:41;23.80;99.90
6843;DHT22;3460;52.028;8.916;2023-06-05T15:31:08;23.80;99.90
6843;DHT22;3460;52.028;8.916;2023-06-05T15:33:35;23.80;99.90
6843;DHT22;3460;52.028;8.916;2023-06-05T15:36:02;23.80;99.90
6843;DHT22;3460;52.028;8.916;2023-06-05T15:38:29;23.90;99.90
6843;DHT22;3460;52.028;8.916;2023-06-05T15:40:56;23.90;99.90
6843;DHT22;3460;52.028;8.916;2023-06-05T15:43:23;24.00;99.90
6843;DHT22;3460;52.028;8.916;2023-06-05T15:45:51;24.10;99.90
6843;DHT22;3460;52.028;8.916;2023-06-05T15:48:18;24.10;99.90
6843;DHT22;3460;52.028;8.916;2023-06-05T15:50:45;24.10;99.90
6843;DHT22;3460;52.028;8.916;2023-06-05T15:53:12;24.00;99.90
6843;DHT22;3460;52.028;8.916;2023-06-05T15:55:39;23.90;99.90
6843;DHT22;3460;52.028;8.916;2023-06-05T15:58:09;24.00;99.90
6843;DHT22;3460;52.028;8.916;2023-06-05T16:00:36;23.80;99.90
6843;DHT22;3460;52.028;8.916;2023-06-05T16:03:04;23.70;99.90
6843;DHT22;3460;52.028;8.916;2023-06-05T16:05:31;23.70;99.90
6843;DHT22;3460;52.028;8.916;2023-06-05T16:07:58;23.90;99.90
6843;DHT22;3460;52.028;8.916;2023-06-05T16:10:25;24.00;99.90
6843;DHT22;3460;52.028;8.916;2023-06-05T16:12:51;24.00;99.90
6843;DHT22;3460;52.028;8.916;2023-06-05T16:15:20;24.00;99.90
6843;DHT22;3460;52.028;8.916;2023-06-05T16:17:48;23.80;99.90